North Hollywood, CA (91601)

4:04 PM PST on December 26, 2014 (GMT -0800)
North Hollywood, CA | Change Station
CLOSE
Current Station
Personal Weather Station
Location: North Hollywood, CA
Elevation: 679 ft
Nearby Weather Stations
Active Advisory: Wind Advisory Active Notice: Public Information Statement

Elev 679 ft 34.18 °N, 118.37 °W | Updated 32 seconds ago

Clear
Clear
61.7 °F
Feels Like 61.7 °F
N
4.3
Wind Variable Wind from East
Gusts 4.3 mph

Today
High -- | Low -- °F
--% Chance of Precip.
Yesterday
High -- | Low -- °F
Precip. -- in
6:57 AM 4:50 PM
Waxing Crescent, 30% visible
Pressure 30.03 in
Visibility 10.0 miles
Clouds Clear
Dew Point 21 °F
Humidity 21%
Rainfall 0.00 in
Snow Depth Not available.
UV 0 out of 12
Pollen 7.00 out of 12
Air Quality Not available.
Flu Activity Not available.
METAR KBUR 262353Z 16008KT 10SM CLR 16/M08 A3005 RMK AO2 SLP168 T01561078 10167 20133 53006

More Conditions Fewer Conditions

Pressure 30.03 in
Visibility 10.0 miles
Clouds Clear
Dew Point 21 °F
Humidity 21%
Rainfall 0.00 in
Snow Depth Not available.
UV 0 out of 12
Pollen 7.00 out of 12
Air Quality Not available.
Flu Activity Not available.
METAR KBUR 262353Z 16008KT 10SM CLR 16/M08 A3005 RMK AO2 SLP168 T01561078 10167 20133 53006

More Conditions Fewer Conditions

10-Day Weather Forecast

Almanac

Astronomy

Dec. 26, 2014 Rise Set
Actual Time
Civil Twilight
Nautical Twilight
Astronomical Twilight
Moon
Length of Visible Light
Length of Day
Tomorrow will be .
, % of the Moon is Illuminated

Today's Extremes

State Highs State Lows

Community

WunderPhotos

Upload Photos

1,780,792 photos uploaded!

WunderBlogs® & News

Nearby

Air Quality

  Air Quality AQ Index Pollutant
Not available.

Snow Depth

Station Depth Elevation

Earthquake Activity

City Distance Mag. Time & Date
Minimum magnitude displayed is 2.5.

Coastal Water Temperatures

Place Temperature

Nearby Weather Stations